RJOR

Details ICAO RJOR (TTJ)
Name TOTTORI
Region Japan
Timezone Asia/Tokyo (UTC+9.0)
Plans Departing 7
Arriving 9
Stats Elevation 65 ft / 20 m (AMSL)
Location 35.530048° 134.165050°
Runways 1
Magnetic Variation 7.993° W
Sunrise 2017-12-11 22:04:28 UTC / 2017-12-12 07:04:28 Local
Sunset 2017-12-12 07:52:12 UTC / 2017-12-12 16:52:12 Local
Advertisement - Login to hide

Runways

ID Width Length Bearing (true) Bearing (mag) Surface Threshold Offset Overrun Length
10 150 ft / 46 m 6,550 ft / 1,996 m 93.80° 101.79° Asphalt 0 ft / 0 m 190 ft / 58 m
28 150 ft / 46 m 6,550 ft / 1,996 m 273.81° 281.80° Asphalt 0 ft / 0 m 190 ft / 58 m

Map

Weather


0- 5 10 15 20 25 30 35+ Temperature / ° C

Clouds and Precipitation
Forecast for 2017-12-12 06:00 UTC. Updated an hour ago

Ground ~20,000 ft ~40,000 ft Winds

METAR

RJOR 120622Z 23017KT 5000 -SHSN FEW010 SCT020 BKN030 01/M04 Q1020 RMK 1CU010 3CU020 5CU030 A3013

TAF

Not found
Warning: Do not use this data for real-world aviation or navigation. No guarantee of current accuracy is given.